sensor_id;sensor_type;location;lat;lon;timestamp;P1;durP1;ratioP1;P2;durP2;ratioP2
10013;SDS011;45684;48.358;10.746;2023-08-30T00:02:03;16.37;;;14.87;;
10013;SDS011;45684;48.358;10.746;2023-08-30T00:04:32;15.53;;;14.13;;
10013;SDS011;45684;48.358;10.746;2023-08-30T00:07:00;15.47;;;14.07;;
10013;SDS011;45684;48.358;10.746;2023-08-30T00:09:28;14.83;;;13.53;;
10013;SDS011;45684;48.358;10.746;2023-08-30T00:11:56;17.10;;;15.50;;
10013;SDS011;45684;48.358;10.746;2023-08-30T00:14:23;15.90;;;14.40;;
10013;SDS011;45684;48.358;10.746;2023-08-30T00:16:52;16.07;;;14.57;;
10013;SDS011;45684;48.358;10.746;2023-08-30T00:19:19;15.60;;;14.20;;
10013;SDS011;45684;48.358;10.746;2023-08-30T00:21:49;15.33;;;13.93;;
10013;SDS011;45684;48.358;10.746;2023-08-30T00:24:16;15.67;;;14.27;;
10013;SDS011;45684;48.358;10.746;2023-08-30T00:26:44;14.67;;;13.37;;
10013;SDS011;45684;48.358;10.746;2023-08-30T00:29:13;15.70;;;14.30;;
10013;SDS011;45684;48.358;10.746;2023-08-30T00:31:41;14.47;;;13.13;;
10013;SDS011;45684;48.358;10.746;2023-08-30T00:34:08;16.50;;;14.90;;
10013;SDS011;45684;48.358;10.746;2023-08-30T00:36:36;16.33;;;14.73;;
10013;SDS011;45684;48.358;10.746;2023-08-30T00:39:05;16.17;;;14.57;;
10013;SDS011;45684;48.358;10.746;2023-08-30T00:41:34;17.27;;;15.57;;
10013;SDS011;45684;48.358;10.746;2023-08-30T00:44:02;15.97;;;14.47;;
10013;SDS011;45684;48.358;10.746;2023-08-30T00:46:30;17.63;;;16.00;;
10013;SDS011;45684;48.358;10.746;2023-08-30T00:49:00;16.83;;;15.23;;
10013;SDS011;45684;48.358;10.746;2023-08-30T00:51:28;17.03;;;15.40;;
10013;SDS011;45684;48.358;10.746;2023-08-30T00:53:57;17.13;;;15.63;;
10013;SDS011;45684;48.358;10.746;2023-08-30T00:56:28;17.63;;;15.87;;
10013;SDS011;45684;48.358;10.746;2023-08-30T00:58:57;16.30;;;14.80;;
10013;SDS011;45684;48.358;10.746;2023-08-30T01:01:25;15.77;;;14.37;;
10013;SDS011;45684;48.358;10.746;2023-08-30T01:03:53;17.37;;;15.67;;
10013;SDS011;45684;48.358;10.746;2023-08-30T01:06:21;16.30;;;14.80;;
10013;SDS011;45684;48.358;10.746;2023-08-30T01:08:49;16.03;;;14.63;;
10013;SDS011;45684;48.358;10.746;2023-08-30T01:11:19;16.77;;;15.17;;
10013;SDS011;45684;48.358;10.746;2023-08-30T01:13:55;16.63;;;15.03;;
10013;SDS011;45684;48.358;10.746;2023-08-30T01:16:26;16.00;;;14.57;;
10013;SDS011;45684;48.358;10.746;2023-08-30T01:18:55;16.67;;;15.10;;
10013;SDS011;45684;48.358;10.746;2023-08-30T01:21:27;16.43;;;14.73;;
10013;SDS011;45684;48.358;10.746;2023-08-30T01:24:02;15.73;;;14.33;;
10013;SDS011;45684;48.358;10.746;2023-08-30T01:26:36;16.07;;;14.57;;
10013;SDS011;45684;48.358;10.746;2023-08-30T01:29:11;16.20;;;14.67;;
10013;SDS011;45684;48.358;10.746;2023-08-30T01:31:40;15.20;;;13.80;;
10013;SDS011;45684;48.358;10.746;2023-08-30T01:34:09;14.73;;;13.43;;
10013;SDS011;45684;48.358;10.746;2023-08-30T01:36:39;15.67;;;14.20;;
10013;SDS011;45684;48.358;10.746;2023-08-30T01:39:09;16.03;;;14.53;;
10013;SDS011;45684;48.358;10.746;2023-08-30T01:41:39;15.57;;;14.20;;
10013;SDS011;45684;48.358;10.746;2023-08-30T01:44:08;16.87;;;15.27;;
10013;SDS011;45684;48.358;10.746;2023-08-30T01:46:41;15.73;;;14.33;;
10013;SDS011;45684;48.358;10.746;2023-08-30T01:49:12;16.07;;;14.53;;
10013;SDS011;45684;48.358;10.746;2023-08-30T01:51:40;15.50;;;14.10;;
10013;SDS011;45684;48.358;10.746;2023-08-30T01:54:08;15.87;;;14.47;;
10013;SDS011;45684;48.358;10.746;2023-08-30T01:56:38;16.00;;;14.50;;
10013;SDS011;45684;48.358;10.746;2023-08-30T01:59:06;17.00;;;15.30;;
10013;SDS011;45684;48.358;10.746;2023-08-30T02:01:35;15.17;;;13.77;;
10013;SDS011;45684;48.358;10.746;2023-08-30T02:04:03;15.47;;;13.97;;
10013;SDS011;45684;48.358;10.746;2023-08-30T02:06:32;15.83;;;14.33;;
10013;SDS011;45684;48.358;10.746;2023-08-30T02:09:08;16.00;;;14.43;;
10013;SDS011;45684;48.358;10.746;2023-08-30T02:11:39;15.47;;;14.07;;
10013;SDS011;45684;48.358;10.746;2023-08-30T02:14:11;16.73;;;15.13;;
10013;SDS011;45684;48.358;10.746;2023-08-30T02:16:44;15.37;;;13.97;;
10013;SDS011;45684;48.358;10.746;2023-08-30T02:19:14;16.13;;;14.53;;
10013;SDS011;45684;48.358;10.746;2023-08-30T02:21:43;14.30;;;13.00;;
10013;SDS011;45684;48.358;10.746;2023-08-30T02:24:11;15.93;;;14.43;;
10013;SDS011;45684;48.358;10.746;2023-08-30T02:26:38;15.57;;;14.17;;
10013;SDS011;45684;48.358;10.746;2023-08-30T02:29:06;14.63;;;13.33;;
10013;SDS011;45684;48.358;10.746;2023-08-30T02:31:36;14.87;;;13.57;;
10013;SDS011;45684;48.358;10.746;2023-08-30T02:34:06;15.13;;;13.73;;
10013;SDS011;45684;48.358;10.746;2023-08-30T02:36:35;15.17;;;13.67;;
10013;SDS011;45684;48.358;10.746;2023-08-30T02:39:03;15.83;;;14.43;;
10013;SDS011;45684;48.358;10.746;2023-08-30T02:41:32;16.90;;;15.20;;
10013;SDS011;45684;48.358;10.746;2023-08-30T02:44:00;16.50;;;14.90;;
10013;SDS011;45684;48.358;10.746;2023-08-30T02:46:28;17.03;;;15.13;;
10013;SDS011;45684;48.358;10.746;2023-08-30T02:48:56;15.90;;;14.23;;
10013;SDS011;45684;48.358;10.746;2023-08-30T02:51:25;16.53;;;14.93;;
10013;SDS011;45684;48.358;10.746;2023-08-30T02:53:53;17.83;;;16.03;;
10013;SDS011;45684;48.358;10.746;2023-08-30T02:56:20;15.70;;;14.20;;
10013;SDS011;45684;48.358;10.746;2023-08-30T02:58:48;15.87;;;14.43;;
10013;SDS011;45684;48.358;10.746;2023-08-30T03:01:16;15.00;;;13.40;;
10013;SDS011;45684;48.358;10.746;2023-08-30T03:03:47;15.60;;;14.17;;
10013;SDS011;45684;48.358;10.746;2023-08-30T03:06:17;16.93;;;15.33;;
10013;SDS011;45684;48.358;10.746;2023-08-30T03:08:46;17.53;;;15.80;;
10013;SDS011;45684;48.358;10.746;2023-08-30T03:11:15;17.20;;;15.53;;
10013;SDS011;45684;48.358;10.746;2023-08-30T03:13:48;18.40;;;16.17;;
10013;SDS011;45684;48.358;10.746;2023-08-30T03:16:16;17.90;;;15.87;;
10013;SDS011;45684;48.358;10.746;2023-08-30T03:18:45;17.57;;;15.77;;
10013;SDS011;45684;48.358;10.746;2023-08-30T03:21:13;16.87;;;15.27;;
10013;SDS011;45684;48.358;10.746;2023-08-30T03:23:41;18.10;;;16.20;;
10013;SDS011;45684;48.358;10.746;2023-08-30T03:26:11;16.30;;;14.77;;
10013;SDS011;45684;48.358;10.746;2023-08-30T03:28:40;16.97;;;15.13;;
10013;SDS011;45684;48.358;10.746;2023-08-30T03:31:15;17.00;;;15.40;;
10013;SDS011;45684;48.358;10.746;2023-08-30T03:33:45;17.63;;;15.93;;
10013;SDS011;45684;48.358;10.746;2023-08-30T03:36:14;17.10;;;15.30;;
10013;SDS011;45684;48.358;10.746;2023-08-30T03:38:43;17.90;;;16.00;;
10013;SDS011;45684;48.358;10.746;2023-08-30T03:41:13;18.37;;;16.43;;
10013;SDS011;45684;48.358;10.746;2023-08-30T03:43:43;17.43;;;15.57;;
10013;SDS011;45684;48.358;10.746;2023-08-30T03:46:11;16.77;;;15.17;;
10013;SDS011;45684;48.358;10.746;2023-08-30T03:48:39;17.30;;;15.60;;
10013;SDS011;45684;48.358;10.746;2023-08-30T03:51:07;17.37;;;15.57;;
10013;SDS011;45684;48.358;10.746;2023-08-30T03:53:35;17.57;;;15.93;;
10013;SDS011;45684;48.358;10.746;2023-08-30T03:56:03;16.97;;;15.27;;
10013;SDS011;45684;48.358;10.746;2023-08-30T03:58:32;15.93;;;14.43;;
10013;SDS011;45684;48.358;10.746;2023-08-30T04:01:00;15.97;;;14.47;;
10013;SDS011;45684;48.358;10.746;2023-08-30T04:03:28;15.83;;;14.17;;
10013;SDS011;45684;48.358;10.746;2023-08-30T04:05:56;15.97;;;14.37;;
10013;SDS011;45684;48.358;10.746;2023-08-30T04:08:24;17.30;;;15.50;;
10013;SDS011;45684;48.358;10.746;2023-08-30T04:10:52;16.60;;;15.00;;
10013;SDS011;45684;48.358;10.746;2023-08-30T04:13:20;16.90;;;15.30;;
10013;SDS011;45684;48.358;10.746;2023-08-30T04:15:50;16.40;;;14.80;;
10013;SDS011;45684;48.358;10.746;2023-08-30T04:18:18;17.10;;;15.37;;
10013;SDS011;45684;48.358;10.746;2023-08-30T04:20:47;16.30;;;14.70;;
10013;SDS011;45684;48.358;10.746;2023-08-30T04:23:15;17.00;;;15.30;;
10013;SDS011;45684;48.358;10.746;2023-08-30T04:25:43;16.63;;;15.03;;
10013;SDS011;45684;48.358;10.746;2023-08-30T04:28:11;16.90;;;15.30;;
10013;SDS011;45684;48.358;10.746;2023-08-30T04:30:40;16.33;;;14.83;;
10013;SDS011;45684;48.358;10.746;2023-08-30T04:33:09;16.80;;;15.20;;
10013;SDS011;45684;48.358;10.746;2023-08-30T04:35:38;16.73;;;15.17;;
10013;SDS011;45684;48.358;10.746;2023-08-30T04:38:05;18.00;;;16.10;;
10013;SDS011;45684;48.358;10.746;2023-08-30T04:40:34;17.00;;;15.30;;
10013;SDS011;45684;48.358;10.746;2023-08-30T04:43:02;16.77;;;15.17;;
10013;SDS011;45684;48.358;10.746;2023-08-30T04:45:30;16.50;;;14.90;;
10013;SDS011;45684;48.358;10.746;2023-08-30T04:47:58;16.80;;;15.20;;
10013;SDS011;45684;48.358;10.746;2023-08-30T04:50:27;16.50;;;15.00;;
10013;SDS011;45684;48.358;10.746;2023-08-30T04:52:57;17.10;;;14.97;;
10013;SDS011;45684;48.358;10.746;2023-08-30T04:55:24;17.90;;;16.00;;
10013;SDS011;45684;48.358;10.746;2023-08-30T04:57:52;19.20;;;17.30;;
10013;SDS011;45684;48.358;10.746;2023-08-30T05:00:21;18.23;;;16.33;;
10013;SDS011;45684;48.358;10.746;2023-08-30T05:02:51;19.03;;;17.17;;
10013;SDS011;45684;48.358;10.746;2023-08-30T05:05:19;17.83;;;15.97;;
10013;SDS011;45684;48.358;10.746;2023-08-30T05:07:48;17.80;;;16.00;;
10013;SDS011;45684;48.358;10.746;2023-08-30T05:10:16;18.10;;;16.33;;
10013;SDS011;45684;48.358;10.746;2023-08-30T05:12:44;17.60;;;15.97;;
10013;SDS011;45684;48.358;10.746;2023-08-30T05:15:18;18.47;;;16.67;;
10013;SDS011;45684;48.358;10.746;2023-08-30T05:17:46;17.50;;;15.87;;
10013;SDS011;45684;48.358;10.746;2023-08-30T05:20:14;18.67;;;16.87;;
10013;SDS011;45684;48.358;10.746;2023-08-30T05:22:42;18.93;;;17.07;;
10013;SDS011;45684;48.358;10.746;2023-08-30T05:25:11;17.93;;;16.20;;
10013;SDS011;45684;48.358;10.746;2023-08-30T05:27:39;18.57;;;16.77;;
10013;SDS011;45684;48.358;10.746;2023-08-30T05:30:08;17.97;;;16.07;;
10013;SDS011;45684;48.358;10.746;2023-08-30T05:32:38;18.80;;;16.93;;
10013;SDS011;45684;48.358;10.746;2023-08-30T05:35:21;19.33;;;17.53;;
10013;SDS011;45684;48.358;10.746;2023-08-30T05:38:18;17.50;;;15.87;;
10013;SDS011;45684;48.358;10.746;2023-08-30T05:41:00;17.50;;;15.77;;
10013;SDS011;45684;48.358;10.746;2023-08-30T05:43:28;18.57;;;16.77;;
10013;SDS011;45684;48.358;10.746;2023-08-30T05:45:57;18.10;;;16.23;;
10013;SDS011;45684;48.358;10.746;2023-08-30T05:48:28;17.70;;;15.90;;
10013;SDS011;45684;48.358;10.746;2023-08-30T05:50:57;18.43;;;16.30;;
10013;SDS011;45684;48.358;10.746;2023-08-30T05:53:24;17.40;;;15.70;;
10013;SDS011;45684;48.358;10.746;2023-08-30T05:55:53;17.60;;;15.93;;
10013;SDS011;45684;48.358;10.746;2023-08-30T05:58:22;18.27;;;16.60;;
10013;SDS011;45684;48.358;10.746;2023-08-30T06:00:50;17.20;;;15.60;;
10013;SDS011;45684;48.358;10.746;2023-08-30T06:03:18;16.50;;;15.00;;
10013;SDS011;45684;48.358;10.746;2023-08-30T06:05:46;17.00;;;15.40;;
10013;SDS011;45684;48.358;10.746;2023-08-30T06:08:15;16.87;;;15.30;;
10013;SDS011;45684;48.358;10.746;2023-08-30T06:10:44;17.10;;;15.60;;
10013;SDS011;45684;48.358;10.746;2023-08-30T06:13:11;15.10;;;13.70;;
10013;SDS011;45684;48.358;10.746;2023-08-30T06:15:41;15.23;;;13.83;;
10013;SDS011;45684;48.358;10.746;2023-08-30T06:18:11;15.97;;;14.67;;
10013;SDS011;45684;48.358;10.746;2023-08-30T06:20:39;16.00;;;14.40;;
10013;SDS011;45684;48.358;10.746;2023-08-30T06:23:07;16.00;;;14.50;;
10013;SDS011;45684;48.358;10.746;2023-08-30T06:25:36;16.87;;;15.27;;
10013;SDS011;45684;48.358;10.746;2023-08-30T06:28:04;15.10;;;13.70;;
10013;SDS011;45684;48.358;10.746;2023-08-30T06:30:33;15.20;;;13.90;;
10013;SDS011;45684;48.358;10.746;2023-08-30T06:33:02;16.07;;;14.47;;
10013;SDS011;45684;48.358;10.746;2023-08-30T06:35:30;16.40;;;14.80;;
10013;SDS011;45684;48.358;10.746;2023-08-30T06:37:58;14.87;;;13.57;;
10013;SDS011;45684;48.358;10.746;2023-08-30T06:40:26;16.00;;;14.43;;
10013;SDS011;45684;48.358;10.746;2023-08-30T06:42:54;18.27;;;14.13;;
10013;SDS011;45684;48.358;10.746;2023-08-30T06:45:21;14.53;;;13.27;;
10013;SDS011;45684;48.358;10.746;2023-08-30T06:47:49;15.37;;;13.97;;
10013;SDS011;45684;48.358;10.746;2023-08-30T06:50:19;15.33;;;14.03;;
10013;SDS011;45684;48.358;10.746;2023-08-30T06:52:47;14.40;;;13.13;;
10013;SDS011;45684;48.358;10.746;2023-08-30T06:55:15;14.40;;;13.20;;
10013;SDS011;45684;48.358;10.746;2023-08-30T06:57:47;14.00;;;12.70;;
10013;SDS011;45684;48.358;10.746;2023-08-30T07:00:17;13.90;;;12.63;;
10013;SDS011;45684;48.358;10.746;2023-08-30T07:02:45;14.07;;;12.87;;
10013;SDS011;45684;48.358;10.746;2023-08-30T07:05:13;13.20;;;12.10;;
10013;SDS011;45684;48.358;10.746;2023-08-30T07:07:42;13.87;;;12.77;;
10013;SDS011;45684;48.358;10.746;2023-08-30T07:10:10;13.47;;;12.37;;
10013;SDS011;45684;48.358;10.746;2023-08-30T07:12:38;12.77;;;11.67;;
10013;SDS011;45684;48.358;10.746;2023-08-30T07:15:06;12.97;;;11.87;;
10013;SDS011;45684;48.358;10.746;2023-08-30T07:17:35;12.60;;;11.60;;
10013;SDS011;45684;48.358;10.746;2023-08-30T07:20:19;12.83;;;11.73;;
10013;SDS011;45684;48.358;10.746;2023-08-30T07:22:48;12.40;;;11.40;;
10013;SDS011;45684;48.358;10.746;2023-08-30T07:25:16;12.60;;;11.50;;
10013;SDS011;45684;48.358;10.746;2023-08-30T07:27:44;11.73;;;10.63;;
10013;SDS011;45684;48.358;10.746;2023-08-30T07:30:12;11.97;;;11.03;;
10013;SDS011;45684;48.358;10.746;2023-08-30T07:32:40;12.33;;;11.33;;
10013;SDS011;45684;48.358;10.746;2023-08-30T07:35:08;12.80;;;11.70;;
10013;SDS011;45684;48.358;10.746;2023-08-30T07:37:40;12.77;;;11.77;;
10013;SDS011;45684;48.358;10.746;2023-08-30T07:40:10;12.10;;;11.20;;
10013;SDS011;45684;48.358;10.746;2023-08-30T07:42:38;11.80;;;10.90;;
10013;SDS011;45684;48.358;10.746;2023-08-30T07:45:06;11.50;;;10.60;;
10013;SDS011;45684;48.358;10.746;2023-08-30T07:47:35;11.20;;;10.30;;
10013;SDS011;45684;48.358;10.746;2023-08-30T07:50:04;12.10;;;11.10;;
10013;SDS011;45684;48.358;10.746;2023-08-30T07:52:33;11.53;;;10.60;;
10013;SDS011;45684;48.358;10.746;2023-08-30T07:55:13;11.23;;;10.43;;
10013;SDS011;45684;48.358;10.746;2023-08-30T07:57:41;11.47;;;10.57;;
10013;SDS011;45684;48.358;10.746;2023-08-30T08:00:09;11.00;;;10.20;;
10013;SDS011;45684;48.358;10.746;2023-08-30T08:02:38;10.93;;;10.13;;
10013;SDS011;45684;48.358;10.746;2023-08-30T08:05:07;11.83;;;10.93;;
10013;SDS011;45684;48.358;10.746;2023-08-30T08:07:37;10.80;;;10.00;;
10013;SDS011;45684;48.358;10.746;2023-08-30T08:10:06;10.63;;;9.83;;
10013;SDS011;45684;48.358;10.746;2023-08-30T08:12:36;11.23;;;10.33;;
10013;SDS011;45684;48.358;10.746;2023-08-30T08:15:04;11.00;;;10.10;;
10013;SDS011;45684;48.358;10.746;2023-08-30T08:17:32;11.37;;;10.47;;
10013;SDS011;45684;48.358;10.746;2023-08-30T08:20:00;11.30;;;10.50;;
10013;SDS011;45684;48.358;10.746;2023-08-30T08:22:29;10.87;;;10.07;;
10013;SDS011;45684;48.358;10.746;2023-08-30T08:24:57;9.90;;;9.20;;
10013;SDS011;45684;48.358;10.746;2023-08-30T08:27:25;10.93;;;10.10;;
10013;SDS011;45684;48.358;10.746;2023-08-30T08:29:54;10.17;;;9.47;;
10013;SDS011;45684;48.358;10.746;2023-08-30T08:32:22;10.43;;;9.70;;
10013;SDS011;45684;48.358;10.746;2023-08-30T08:34:50;10.43;;;9.73;;
10013;SDS011;45684;48.358;10.746;2023-08-30T08:37:18;11.23;;;10.13;;
10013;SDS011;45684;48.358;10.746;2023-08-30T08:39:45;10.60;;;9.87;;
10013;SDS011;45684;48.358;10.746;2023-08-30T08:42:16;9.20;;;8.60;;
10013;SDS011;45684;48.358;10.746;2023-08-30T08:44:46;10.17;;;9.33;;
10013;SDS011;45684;48.358;10.746;2023-08-30T08:47:15;9.93;;;9.23;;
10013;SDS011;45684;48.358;10.746;2023-08-30T08:49:44;10.17;;;9.37;;
10013;SDS011;45684;48.358;10.746;2023-08-30T08:52:13;9.13;;;8.37;;
10013;SDS011;45684;48.358;10.746;2023-08-30T08:54:55;9.60;;;8.90;;
10013;SDS011;45684;48.358;10.746;2023-08-30T08:57:23;9.37;;;8.67;;
10013;SDS011;45684;48.358;10.746;2023-08-30T08:59:51;9.53;;;8.83;;
10013;SDS011;45684;48.358;10.746;2023-08-30T09:02:20;9.60;;;8.80;;
10013;SDS011;45684;48.358;10.746;2023-08-30T09:04:49;8.50;;;7.90;;
10013;SDS011;45684;48.358;10.746;2023-08-30T09:07:17;8.87;;;8.37;;
10013;SDS011;45684;48.358;10.746;2023-08-30T09:09:46;9.23;;;8.60;;
10013;SDS011;45684;48.358;10.746;2023-08-30T09:12:14;9.10;;;8.47;;
10013;SDS011;45684;48.358;10.746;2023-08-30T09:14:52;9.10;;;8.50;;
10013;SDS011;45684;48.358;10.746;2023-08-30T09:17:22;9.20;;;8.60;;
10013;SDS011;45684;48.358;10.746;2023-08-30T09:19:49;8.87;;;8.27;;
10013;SDS011;45684;48.358;10.746;2023-08-30T09:22:17;9.27;;;8.67;;
10013;SDS011;45684;48.358;10.746;2023-08-30T09:24:45;8.67;;;8.07;;
10013;SDS011;45684;48.358;10.746;2023-08-30T09:27:13;8.70;;;8.10;;
10013;SDS011;45684;48.358;10.746;2023-08-30T09:29:41;8.50;;;8.00;;
10013;SDS011;45684;48.358;10.746;2023-08-30T09:32:12;8.70;;;8.00;;
10013;SDS011;45684;48.358;10.746;2023-08-30T09:34:46;8.63;;;7.97;;
10013;SDS011;45684;48.358;10.746;2023-08-30T09:37:23;8.70;;;8.10;;
10013;SDS011;45684;48.358;10.746;2023-08-30T09:39:52;8.30;;;7.73;;
10013;SDS011;45684;48.358;10.746;2023-08-30T09:42:20;8.03;;;7.53;;
10013;SDS011;45684;48.358;10.746;2023-08-30T09:44:49;9.03;;;8.27;;
10013;SDS011;45684;48.358;10.746;2023-08-30T09:47:18;7.93;;;7.43;;
10013;SDS011;45684;48.358;10.746;2023-08-30T09:49:47;7.88;;;7.38;;
10013;SDS011;45684;48.358;10.746;2023-08-30T09:52:19;8.40;;;7.78;;
10013;SDS011;45684;48.358;10.746;2023-08-30T09:54:49;14.93;;;14.23;;
10013;SDS011;45684;48.358;10.746;2023-08-30T09:57:18;16.77;;;16.08;;
10013;SDS011;45684;48.358;10.746;2023-08-30T09:59:49;24.38;;;23.27;;
10013;SDS011;45684;48.358;10.746;2023-08-30T10:02:17;24.13;;;22.92;;
10013;SDS011;45684;48.358;10.746;2023-08-30T10:04:47;21.52;;;20.50;;
10013;SDS011;45684;48.358;10.746;2023-08-30T10:07:16;16.92;;;16.13;;
10013;SDS011;45684;48.358;10.746;2023-08-30T10:09:46;33.25;;;31.85;;
10013;SDS011;45684;48.358;10.746;2023-08-30T10:12:34;27.00;;;25.90;;
10013;SDS011;45684;48.358;10.746;2023-08-30T10:15:03;140.88;;;135.20;;
10013;SDS011;45684;48.358;10.746;2023-08-30T10:17:32;291.55;;;279.00;;
10013;SDS011;45684;48.358;10.746;2023-08-30T10:20:03;247.45;;;237.15;;
10013;SDS011;45684;48.358;10.746;2023-08-30T10:22:34;558.78;;;529.13;;
10013;SDS011;45684;48.358;10.746;2023-08-30T10:25:05;352.88;;;336.48;;
10013;SDS011;45684;48.358;10.746;2023-08-30T10:27:38;516.95;;;490.67;;
10013;SDS011;45684;48.358;10.746;2023-08-30T10:30:09;490.67;;;464.10;;
10013;SDS011;45684;48.358;10.746;2023-08-30T10:32:39;121.90;;;115.90;;
10013;SDS011;45684;48.358;10.746;2023-08-30T10:35:10;514.10;;;486.52;;
10013;SDS011;45684;48.358;10.746;2023-08-30T10:37:38;438.08;;;414.15;;
10013;SDS011;45684;48.358;10.746;2023-08-30T10:40:07;539.58;;;512.13;;
10013;SDS011;45684;48.358;10.746;2023-08-30T10:42:36;320.17;;;302.42;;
10013;SDS011;45684;48.358;10.746;2023-08-30T10:45:04;411.70;;;390.42;;
10013;SDS011;45684;48.358;10.746;2023-08-30T10:47:36;281.45;;;268.08;;
10013;SDS011;45684;48.358;10.746;2023-08-30T10:50:06;452.98;;;429.83;;
10013;SDS011;45684;48.358;10.746;2023-08-30T10:52:37;521.58;;;491.80;;
10013;SDS011;45684;48.358;10.746;2023-08-30T10:55:05;501.70;;;474.38;;
10013;SDS011;45684;48.358;10.746;2023-08-30T10:57:34;269.40;;;257.52;;
10013;SDS011;45684;48.358;10.746;2023-08-30T11:00:08;555.90;;;524.38;;
10013;SDS011;45684;48.358;10.746;2023-08-30T11:02:37;382.55;;;362.73;;
10013;SDS011;45684;48.358;10.746;2023-08-30T11:05:06;467.55;;;442.98;;
10013;SDS011;45684;48.358;10.746;2023-08-30T11:07:37;471.15;;;447.48;;
10013;SDS011;45684;48.358;10.746;2023-08-30T11:10:05;506.17;;;478.75;;
10013;SDS011;45684;48.358;10.746;2023-08-30T11:12:35;522.60;;;495.70;;
10013;SDS011;45684;48.358;10.746;2023-08-30T11:15:03;558.67;;;527.53;;
10013;SDS011;45684;48.358;10.746;2023-08-30T11:17:31;399.52;;;376.38;;
10013;SDS011;45684;48.358;10.746;2023-08-30T11:20:05;296.40;;;280.85;;
10013;SDS011;45684;48.358;10.746;2023-08-30T11:22:35;273.38;;;258.27;;
10013;SDS011;45684;48.358;10.746;2023-08-30T11:25:05;112.53;;;106.95;;
10013;SDS011;45684;48.358;10.746;2023-08-30T11:27:35;152.52;;;145.60;;
10013;SDS011;45684;48.358;10.746;2023-08-30T11:30:03;219.98;;;209.98;;
10013;SDS011;45684;48.358;10.746;2023-08-30T11:32:32;176.52;;;168.55;;
10013;SDS011;45684;48.358;10.746;2023-08-30T11:35:01;222.05;;;212.05;;
10013;SDS011;45684;48.358;10.746;2023-08-30T11:37:29;127.22;;;121.38;;
10013;SDS011;45684;48.358;10.746;2023-08-30T11:39:59;227.07;;;216.70;;
10013;SDS011;45684;48.358;10.746;2023-08-30T11:42:30;269.98;;;257.65;;
10013;SDS011;45684;48.358;10.746;2023-08-30T11:44:58;234.30;;;223.73;;
10013;SDS011;45684;48.358;10.746;2023-08-30T11:47:26;211.02;;;201.60;;
10013;SDS011;45684;48.358;10.746;2023-08-30T11:49:55;101.85;;;97.13;;
10013;SDS011;45684;48.358;10.746;2023-08-30T11:52:24;262.17;;;250.07;;
10013;SDS011;45684;48.358;10.746;2023-08-30T11:54:52;113.72;;;108.28;;
10013;SDS011;45684;48.358;10.746;2023-08-30T11:57:23;122.38;;;116.45;;
10013;SDS011;45684;48.358;10.746;2023-08-30T11:59:52;122.15;;;116.32;;
10013;SDS011;45684;48.358;10.746;2023-08-30T12:02:20;215.90;;;206.35;;
10013;SDS011;45684;48.358;10.746;2023-08-30T12:04:49;148.63;;;141.70;;
10013;SDS011;45684;48.358;10.746;2023-08-30T12:07:22;165.30;;;158.32;;
10013;SDS011;45684;48.358;10.746;2023-08-30T12:09:51;141.30;;;135.20;;
10013;SDS011;45684;48.358;10.746;2023-08-30T12:12:19;122.07;;;117.15;;
10013;SDS011;45684;48.358;10.746;2023-08-30T12:14:56;144.40;;;138.65;;
10013;SDS011;45684;48.358;10.746;2023-08-30T12:17:24;130.35;;;125.25;;
10013;SDS011;45684;48.358;10.746;2023-08-30T12:19:55;123.47;;;118.35;;
10013;SDS011;45684;48.358;10.746;2023-08-30T12:22:23;119.78;;;114.63;;
10013;SDS011;45684;48.358;10.746;2023-08-30T12:25:01;102.55;;;98.00;;
10013;SDS011;45684;48.358;10.746;2023-08-30T12:27:31;245.43;;;233.82;;
10013;SDS011;45684;48.358;10.746;2023-08-30T12:29:59;113.30;;;108.07;;
10013;SDS011;45684;48.358;10.746;2023-08-30T12:32:27;150.57;;;144.15;;
10013;SDS011;45684;48.358;10.746;2023-08-30T12:34:55;154.65;;;148.25;;
10013;SDS011;45684;48.358;10.746;2023-08-30T12:37:23;126.45;;;121.00;;
10013;SDS011;45684;48.358;10.746;2023-08-30T12:39:51;152.07;;;145.85;;
10013;SDS011;45684;48.358;10.746;2023-08-30T12:42:19;127.72;;;122.40;;
10013;SDS011;45684;48.358;10.746;2023-08-30T12:44:48;165.73;;;158.70;;
10013;SDS011;45684;48.358;10.746;2023-08-30T12:47:16;159.43;;;152.75;;
10013;SDS011;45684;48.358;10.746;2023-08-30T12:49:44;133.10;;;127.70;;
10013;SDS011;45684;48.358;10.746;2023-08-30T12:52:12;129.85;;;124.53;;
10013;SDS011;45684;48.358;10.746;2023-08-30T12:54:39;134.57;;;128.95;;
10013;SDS011;45684;48.358;10.746;2023-08-30T12:57:07;151.57;;;145.40;;
10013;SDS011;45684;48.358;10.746;2023-08-30T12:59:35;135.48;;;129.90;;
10013;SDS011;45684;48.358;10.746;2023-08-30T13:02:04;143.52;;;137.68;;
10013;SDS011;45684;48.358;10.746;2023-08-30T13:04:32;127.95;;;122.80;;
10013;SDS011;45684;48.358;10.746;2023-08-30T13:07:04;110.57;;;106.10;;
10013;SDS011;45684;48.358;10.746;2023-08-30T13:09:32;115.47;;;110.93;;
10013;SDS011;45684;48.358;10.746;2023-08-30T13:12:00;110.57;;;106.28;;
10013;SDS011;45684;48.358;10.746;2023-08-30T13:14:27;113.38;;;108.88;;
10013;SDS011;45684;48.358;10.746;2023-08-30T13:16:56;117.35;;;112.72;;
10013;SDS011;45684;48.358;10.746;2023-08-30T13:19:25;125.82;;;120.57;;
10013;SDS011;45684;48.358;10.746;2023-08-30T13:21:53;119.85;;;115.13;;
10013;SDS011;45684;48.358;10.746;2023-08-30T13:24:21;108.50;;;104.25;;
10013;SDS011;45684;48.358;10.746;2023-08-30T13:26:49;95.32;;;91.53;;
10013;SDS011;45684;48.358;10.746;2023-08-30T13:29:16;126.75;;;121.63;;
10013;SDS011;45684;48.358;10.746;2023-08-30T13:31:44;112.13;;;107.68;;
10013;SDS011;45684;48.358;10.746;2023-08-30T13:34:12;84.90;;;81.57;;
10013;SDS011;45684;48.358;10.746;2023-08-30T13:36:41;112.97;;;108.25;;
10013;SDS011;45684;48.358;10.746;2023-08-30T13:39:09;125.45;;;120.15;;
10013;SDS011;45684;48.358;10.746;2023-08-30T13:41:37;126.55;;;121.25;;
10013;SDS011;45684;48.358;10.746;2023-08-30T13:44:05;114.90;;;109.97;;
10013;SDS011;45684;48.358;10.746;2023-08-30T13:46:33;125.78;;;120.60;;
10013;SDS011;45684;48.358;10.746;2023-08-30T13:49:01;122.53;;;117.50;;
10013;SDS011;45684;48.358;10.746;2023-08-30T13:51:29;118.95;;;114.07;;
10013;SDS011;45684;48.358;10.746;2023-08-30T13:53:59;115.93;;;111.28;;
10013;SDS011;45684;48.358;10.746;2023-08-30T13:56:27;117.05;;;112.10;;
10013;SDS011;45684;48.358;10.746;2023-08-30T13:58:56;122.55;;;117.40;;
10013;SDS011;45684;48.358;10.746;2023-08-30T14:01:25;116.05;;;111.22;;
10013;SDS011;45684;48.358;10.746;2023-08-30T14:03:53;119.85;;;114.97;;
10013;SDS011;45684;48.358;10.746;2023-08-30T14:06:20;121.63;;;116.47;;
10013;SDS011;45684;48.358;10.746;2023-08-30T14:08:48;106.78;;;102.35;;
10013;SDS011;45684;48.358;10.746;2023-08-30T14:11:18;116.80;;;111.88;;
10013;SDS011;45684;48.358;10.746;2023-08-30T14:13:45;118.47;;;113.70;;
10013;SDS011;45684;48.358;10.746;2023-08-30T14:16:13;107.20;;;102.85;;